sensor_id;sensor_type;location;lat;lon;timestamp;P1;durP1;ratioP1;P2;durP2;ratioP2
25213;SDS011;13160;51.834;4.706;2022-09-09T00:20:05;7.45;;;4.53;;
25213;SDS011;13160;51.834;4.706;2022-09-09T01:15:17;11.25;;;6.45;;
25213;SDS011;13160;51.834;4.706;2022-09-09T01:18:48;11.20;;;6.30;;
25213;SDS011;13160;51.834;4.706;2022-09-09T01:36:28;11.45;;;7.47;;
25213;SDS011;13160;51.834;4.706;2022-09-09T01:40:30;12.10;;;7.43;;
25213;SDS011;13160;51.834;4.706;2022-09-09T01:51:01;14.20;;;8.45;;
25213;SDS011;13160;51.834;4.706;2022-09-09T01:57:29;12.50;;;8.38;;
25213;SDS011;13160;51.834;4.706;2022-09-09T02:31:06;14.63;;;7.78;;
25213;SDS011;13160;51.834;4.706;2022-09-09T02:34:56;9.95;;;7.18;;
25213;SDS011;13160;51.834;4.706;2022-09-09T02:49:40;13.00;;;6.95;;
25213;SDS011;13160;51.834;4.706;2022-09-09T03:21:31;12.50;;;5.05;;
25213;SDS011;13160;51.834;4.706;2022-09-09T03:31:27;10.00;;;4.10;;
25213;SDS011;13160;51.834;4.706;2022-09-09T04:17:46;8.45;;;4.72;;
25213;SDS011;13160;51.834;4.706;2022-09-09T04:26:15;8.73;;;4.03;;
25213;SDS011;13160;51.834;4.706;2022-09-09T04:29:03;13.60;;;4.40;;
25213;SDS011;13160;51.834;4.706;2022-09-09T04:32:15;13.38;;;4.22;;
25213;SDS011;13160;51.834;4.706;2022-09-09T04:35:22;9.38;;;4.50;;
25213;SDS011;13160;51.834;4.706;2022-09-09T04:38:33;10.30;;;4.35;;
25213;SDS011;13160;51.834;4.706;2022-09-09T04:41:49;8.15;;;3.83;;
25213;SDS011;13160;51.834;4.706;2022-09-09T04:48:24;11.85;;;4.00;;
25213;SDS011;13160;51.834;4.706;2022-09-09T05:05:17;10.70;;;4.50;;
25213;SDS011;13160;51.834;4.706;2022-09-09T05:08:54;9.93;;;4.10;;
25213;SDS011;13160;51.834;4.706;2022-09-09T05:13:14;10.57;;;3.58;;
25213;SDS011;13160;51.834;4.706;2022-09-09T05:15:53;12.73;;;4.18;;
25213;SDS011;13160;51.834;4.706;2022-09-09T05:18:27;10.77;;;3.83;;
25213;SDS011;13160;51.834;4.706;2022-09-09T05:21:01;9.63;;;3.70;;
25213;SDS011;13160;51.834;4.706;2022-09-09T05:23:47;12.23;;;4.13;;
25213;SDS011;13160;51.834;4.706;2022-09-09T05:26:19;10.52;;;4.53;;
25213;SDS011;13160;51.834;4.706;2022-09-09T05:28:50;11.32;;;3.90;;
25213;SDS011;13160;51.834;4.706;2022-09-09T05:35:27;13.27;;;4.35;;
25213;SDS011;13160;51.834;4.706;2022-09-09T05:41:17;10.63;;;4.03;;
25213;SDS011;13160;51.834;4.706;2022-09-09T05:44:31;11.63;;;4.20;;
25213;SDS011;13160;51.834;4.706;2022-09-09T05:47:01;14.25;;;3.92;;
25213;SDS011;13160;51.834;4.706;2022-09-09T05:49:36;13.02;;;4.45;;
25213;SDS011;13160;51.834;4.706;2022-09-09T05:52:07;14.18;;;4.40;;
25213;SDS011;13160;51.834;4.706;2022-09-09T05:54:52;15.02;;;4.60;;
25213;SDS011;13160;51.834;4.706;2022-09-09T05:57:21;12.35;;;4.15;;
25213;SDS011;13160;51.834;4.706;2022-09-09T05:59:57;13.98;;;3.97;;
25213;SDS011;13160;51.834;4.706;2022-09-09T06:02:25;14.95;;;4.38;;
25213;SDS011;13160;51.834;4.706;2022-09-09T06:04:55;12.13;;;4.45;;
25213;SDS011;13160;51.834;4.706;2022-09-09T06:07:42;11.38;;;4.03;;
25213;SDS011;13160;51.834;4.706;2022-09-09T06:11:00;11.60;;;3.80;;
25213;SDS011;13160;51.834;4.706;2022-09-09T06:13:38;12.27;;;3.90;;
25213;SDS011;13160;51.834;4.706;2022-09-09T06:16:36;12.40;;;4.13;;
25213;SDS011;13160;51.834;4.706;2022-09-09T06:19:40;11.20;;;4.13;;
25213;SDS011;13160;51.834;4.706;2022-09-09T06:22:23;11.73;;;4.07;;
25213;SDS011;13160;51.834;4.706;2022-09-09T06:25:00;13.90;;;4.32;;
25213;SDS011;13160;51.834;4.706;2022-09-09T06:27:42;11.40;;;4.15;;
25213;SDS011;13160;51.834;4.706;2022-09-09T06:30:26;14.75;;;4.03;;
25213;SDS011;13160;51.834;4.706;2022-09-09T06:33:13;13.55;;;4.47;;
25213;SDS011;13160;51.834;4.706;2022-09-09T06:35:53;11.77;;;4.22;;
25213;SDS011;13160;51.834;4.706;2022-09-09T06:38:30;11.95;;;4.15;;
25213;SDS011;13160;51.834;4.706;2022-09-09T06:41:17;11.20;;;4.00;;
25213;SDS011;13160;51.834;4.706;2022-09-09T06:44:15;16.23;;;4.28;;
25213;SDS011;13160;51.834;4.706;2022-09-09T06:47:02;12.70;;;4.50;;
25213;SDS011;13160;51.834;4.706;2022-09-09T06:49:56;12.90;;;4.55;;
25213;SDS011;13160;51.834;4.706;2022-09-09T06:52:51;14.23;;;4.43;;
25213;SDS011;13160;51.834;4.706;2022-09-09T06:55:37;11.48;;;4.13;;
25213;SDS011;13160;51.834;4.706;2022-09-09T07:05:09;14.60;;;4.30;;
25213;SDS011;13160;51.834;4.706;2022-09-09T07:08:00;13.30;;;4.20;;
25213;SDS011;13160;51.834;4.706;2022-09-09T07:10:46;14.30;;;4.43;;
25213;SDS011;13160;51.834;4.706;2022-09-09T07:13:28;13.88;;;4.38;;
25213;SDS011;13160;51.834;4.706;2022-09-09T07:16:41;12.23;;;4.63;;
25213;SDS011;13160;51.834;4.706;2022-09-09T07:23:16;12.70;;;4.13;;
25213;SDS011;13160;51.834;4.706;2022-09-09T07:26:16;10.40;;;4.15;;
25213;SDS011;13160;51.834;4.706;2022-09-09T07:29:13;13.98;;;4.40;;
25213;SDS011;13160;51.834;4.706;2022-09-09T07:32:18;11.90;;;4.32;;
25213;SDS011;13160;51.834;4.706;2022-09-09T07:35:18;12.23;;;4.00;;
25213;SDS011;13160;51.834;4.706;2022-09-09T07:38:11;11.00;;;4.03;;
25213;SDS011;13160;51.834;4.706;2022-09-09T07:45:08;14.73;;;3.95;;
25213;SDS011;13160;51.834;4.706;2022-09-09T07:48:08;13.02;;;3.65;;
25213;SDS011;13160;51.834;4.706;2022-09-09T07:50:46;13.50;;;4.25;;
25213;SDS011;13160;51.834;4.706;2022-09-09T07:53:40;13.85;;;4.43;;
25213;SDS011;13160;51.834;4.706;2022-09-09T07:56:55;12.48;;;4.25;;
25213;SDS011;13160;51.834;4.706;2022-09-09T07:59:37;14.63;;;4.50;;
25213;SDS011;13160;51.834;4.706;2022-09-09T08:02:09;11.90;;;4.35;;
25213;SDS011;13160;51.834;4.706;2022-09-09T08:05:20;16.02;;;4.00;;
25213;SDS011;13160;51.834;4.706;2022-09-09T08:07:56;11.82;;;4.20;;
25213;SDS011;13160;51.834;4.706;2022-09-09T08:11:04;10.20;;;3.58;;
25213;SDS011;13160;51.834;4.706;2022-09-09T08:14:45;11.70;;;3.83;;
25213;SDS011;13160;51.834;4.706;2022-09-09T08:17:31;11.18;;;3.83;;
25213;SDS011;13160;51.834;4.706;2022-09-09T08:20:20;13.50;;;3.88;;
25213;SDS011;13160;51.834;4.706;2022-09-09T08:22:59;10.38;;;3.80;;
25213;SDS011;13160;51.834;4.706;2022-09-09T08:25:34;10.80;;;3.75;;
25213;SDS011;13160;51.834;4.706;2022-09-09T08:28:25;8.27;;;3.50;;
25213;SDS011;13160;51.834;4.706;2022-09-09T08:31:25;15.18;;;4.10;;
25213;SDS011;13160;51.834;4.706;2022-09-09T08:34:09;10.27;;;3.97;;
25213;SDS011;13160;51.834;4.706;2022-09-09T08:39:50;12.00;;;3.63;;
25213;SDS011;13160;51.834;4.706;2022-09-09T08:42:40;12.27;;;3.63;;
25213;SDS011;13160;51.834;4.706;2022-09-09T08:45:33;11.55;;;3.92;;
25213;SDS011;13160;51.834;4.706;2022-09-09T08:48:53;13.00;;;3.67;;
25213;SDS011;13160;51.834;4.706;2022-09-09T08:52:08;11.40;;;4.10;;
25213;SDS011;13160;51.834;4.706;2022-09-09T08:55:19;10.38;;;3.53;;
25213;SDS011;13160;51.834;4.706;2022-09-09T08:58:29;15.52;;;3.85;;
25213;SDS011;13160;51.834;4.706;2022-09-09T09:01:50;12.18;;;3.38;;
25213;SDS011;13160;51.834;4.706;2022-09-09T09:04:54;10.48;;;3.13;;
25213;SDS011;13160;51.834;4.706;2022-09-09T09:08:13;11.70;;;3.53;;
25213;SDS011;13160;51.834;4.706;2022-09-09T09:11:08;12.77;;;3.72;;
25213;SDS011;13160;51.834;4.706;2022-09-09T09:13:43;11.68;;;3.72;;
25213;SDS011;13160;51.834;4.706;2022-09-09T09:16:31;12.00;;;3.47;;
25213;SDS011;13160;51.834;4.706;2022-09-09T09:19:11;14.00;;;3.58;;
25213;SDS011;13160;51.834;4.706;2022-09-09T09:21:56;14.25;;;3.95;;
25213;SDS011;13160;51.834;4.706;2022-09-09T09:25:15;13.18;;;4.75;;
25213;SDS011;13160;51.834;4.706;2022-09-09T09:28:10;11.93;;;3.40;;
25213;SDS011;13160;51.834;4.706;2022-09-09T09:31:18;11.80;;;3.55;;
25213;SDS011;13160;51.834;4.706;2022-09-09T09:34:20;11.48;;;3.58;;
25213;SDS011;13160;51.834;4.706;2022-09-09T09:41:15;13.45;;;3.25;;
25213;SDS011;13160;51.834;4.706;2022-09-09T09:44:20;10.23;;;3.33;;
25213;SDS011;13160;51.834;4.706;2022-09-09T09:47:10;11.82;;;3.28;;
25213;SDS011;13160;51.834;4.706;2022-09-09T09:49:53;12.93;;;3.65;;
25213;SDS011;13160;51.834;4.706;2022-09-09T09:53:04;12.32;;;2.95;;
25213;SDS011;13160;51.834;4.706;2022-09-09T09:56:00;10.77;;;3.15;;
25213;SDS011;13160;51.834;4.706;2022-09-09T09:58:38;11.57;;;3.35;;
25213;SDS011;13160;51.834;4.706;2022-09-09T10:01:48;11.05;;;3.45;;
25213;SDS011;13160;51.834;4.706;2022-09-09T10:04:19;10.05;;;3.72;;
25213;SDS011;13160;51.834;4.706;2022-09-09T10:06:51;14.10;;;3.10;;
25213;SDS011;13160;51.834;4.706;2022-09-09T10:09:25;11.93;;;3.55;;
25213;SDS011;13160;51.834;4.706;2022-09-09T10:12:06;9.88;;;3.20;;
25213;SDS011;13160;51.834;4.706;2022-09-09T10:18:33;14.43;;;3.83;;
25213;SDS011;13160;51.834;4.706;2022-09-09T10:27:30;9.30;;;3.40;;
25213;SDS011;13160;51.834;4.706;2022-09-09T10:34:36;10.00;;;3.78;;
25213;SDS011;13160;51.834;4.706;2022-09-09T10:37:38;10.20;;;3.78;;
25213;SDS011;13160;51.834;4.706;2022-09-09T10:41:39;12.18;;;3.58;;
25213;SDS011;13160;51.834;4.706;2022-09-09T10:44:30;12.07;;;3.85;;
25213;SDS011;13160;51.834;4.706;2022-09-09T10:50:39;12.02;;;4.20;;
25213;SDS011;13160;51.834;4.706;2022-09-09T11:00:19;11.05;;;4.72;;
25213;SDS011;13160;51.834;4.706;2022-09-09T11:03:31;9.00;;;4.63;;
25213;SDS011;13160;51.834;4.706;2022-09-09T11:06:16;11.25;;;4.70;;
25213;SDS011;13160;51.834;4.706;2022-09-09T11:08:59;9.02;;;4.57;;
25213;SDS011;13160;51.834;4.706;2022-09-09T11:11:45;10.52;;;4.38;;
25213;SDS011;13160;51.834;4.706;2022-09-09T11:14:29;11.52;;;4.28;;
25213;SDS011;13160;51.834;4.706;2022-09-09T11:17:14;9.60;;;4.50;;
25213;SDS011;13160;51.834;4.706;2022-09-09T11:20:06;11.05;;;4.38;;
25213;SDS011;13160;51.834;4.706;2022-09-09T11:23:00;10.95;;;4.70;;
25213;SDS011;13160;51.834;4.706;2022-09-09T11:25:42;9.48;;;4.82;;
25213;SDS011;13160;51.834;4.706;2022-09-09T11:28:31;11.18;;;4.90;;
25213;SDS011;13160;51.834;4.706;2022-09-09T11:47:50;9.60;;;4.53;;
25213;SDS011;13160;51.834;4.706;2022-09-09T11:51:26;10.35;;;3.92;;
25213;SDS011;13160;51.834;4.706;2022-09-09T11:54:51;9.75;;;3.75;;
25213;SDS011;13160;51.834;4.706;2022-09-09T12:07:28;8.82;;;4.20;;
25213;SDS011;13160;51.834;4.706;2022-09-09T12:10:19;10.95;;;3.78;;
25213;SDS011;13160;51.834;4.706;2022-09-09T12:13:16;9.55;;;3.78;;
25213;SDS011;13160;51.834;4.706;2022-09-09T12:16:05;7.88;;;3.92;;
25213;SDS011;13160;51.834;4.706;2022-09-09T12:19:16;9.93;;;3.97;;
25213;SDS011;13160;51.834;4.706;2022-09-09T12:22:23;8.90;;;3.67;;
25213;SDS011;13160;51.834;4.706;2022-09-09T12:25:26;10.00;;;4.03;;
25213;SDS011;13160;51.834;4.706;2022-09-09T12:31:12;13.80;;;4.57;;
25213;SDS011;13160;51.834;4.706;2022-09-09T12:33:55;10.02;;;4.03;;
25213;SDS011;13160;51.834;4.706;2022-09-09T12:36:49;8.98;;;4.13;;
25213;SDS011;13160;51.834;4.706;2022-09-09T13:06:45;10.10;;;4.65;;
25213;SDS011;13160;51.834;4.706;2022-09-09T13:09:15;9.32;;;4.43;;
25213;SDS011;13160;51.834;4.706;2022-09-09T13:11:44;7.68;;;4.03;;
25213;SDS011;13160;51.834;4.706;2022-09-09T13:14:22;9.57;;;4.20;;
25213;SDS011;13160;51.834;4.706;2022-09-09T13:17:04;10.98;;;4.47;;
25213;SDS011;13160;51.834;4.706;2022-09-09T13:34:36;9.38;;;3.50;;
25213;SDS011;13160;51.834;4.706;2022-09-09T13:37:17;7.25;;;3.17;;
25213;SDS011;13160;51.834;4.706;2022-09-09T13:40:00;6.78;;;2.95;;
25213;SDS011;13160;51.834;4.706;2022-09-09T13:42:38;7.03;;;2.75;;
25213;SDS011;13160;51.834;4.706;2022-09-09T13:45:14;8.18;;;2.85;;
25213;SDS011;13160;51.834;4.706;2022-09-09T13:47:58;6.53;;;3.03;;
25213;SDS011;13160;51.834;4.706;2022-09-09T13:50:41;7.78;;;2.75;;
25213;SDS011;13160;51.834;4.706;2022-09-09T13:53:28;5.75;;;2.63;;
25213;SDS011;13160;51.834;4.706;2022-09-09T13:56:13;5.53;;;2.30;;
25213;SDS011;13160;51.834;4.706;2022-09-09T14:19:00;5.95;;;1.77;;
25213;SDS011;13160;51.834;4.706;2022-09-09T14:48:24;7.63;;;2.35;;
25213;SDS011;13160;51.834;4.706;2022-09-09T14:51:20;5.70;;;2.00;;
25213;SDS011;13160;51.834;4.706;2022-09-09T14:54:27;7.45;;;2.45;;
25213;SDS011;13160;51.834;4.706;2022-09-09T14:57:16;6.60;;;2.13;;
25213;SDS011;13160;51.834;4.706;2022-09-09T14:59:50;6.45;;;2.63;;
25213;SDS011;13160;51.834;4.706;2022-09-09T15:02:22;5.85;;;2.20;;
25213;SDS011;13160;51.834;4.706;2022-09-09T15:05:27;6.50;;;2.30;;
25213;SDS011;13160;51.834;4.706;2022-09-09T15:08:24;7.80;;;2.50;;
25213;SDS011;13160;51.834;4.706;2022-09-09T15:11:18;6.60;;;2.53;;
25213;SDS011;13160;51.834;4.706;2022-09-09T15:17:01;7.53;;;2.85;;
25213;SDS011;13160;51.834;4.706;2022-09-09T15:19:40;6.80;;;2.50;;
25213;SDS011;13160;51.834;4.706;2022-09-09T15:22:19;8.13;;;2.85;;
25213;SDS011;13160;51.834;4.706;2022-09-09T15:24:59;5.68;;;2.35;;
25213;SDS011;13160;51.834;4.706;2022-09-09T15:27:43;6.55;;;2.83;;
25213;SDS011;13160;51.834;4.706;2022-09-09T15:30:31;6.43;;;2.80;;
25213;SDS011;13160;51.834;4.706;2022-09-09T15:33:19;7.03;;;2.42;;
25213;SDS011;13160;51.834;4.706;2022-09-09T15:36:25;5.53;;;2.50;;
25213;SDS011;13160;51.834;4.706;2022-09-09T15:39:06;7.75;;;2.88;;
25213;SDS011;13160;51.834;4.706;2022-09-09T15:41:40;7.60;;;2.80;;
25213;SDS011;13160;51.834;4.706;2022-09-09T15:44:18;5.03;;;2.38;;
25213;SDS011;13160;51.834;4.706;2022-09-09T15:46:49;7.55;;;2.83;;
25213;SDS011;13160;51.834;4.706;2022-09-09T15:49:21;6.45;;;2.63;;
25213;SDS011;13160;51.834;4.706;2022-09-09T15:51:55;8.27;;;3.08;;
25213;SDS011;13160;51.834;4.706;2022-09-09T15:54:30;5.70;;;2.47;;
25213;SDS011;13160;51.834;4.706;2022-09-09T15:57:02;6.93;;;2.53;;
25213;SDS011;13160;51.834;4.706;2022-09-09T15:59:32;5.30;;;2.55;;
25213;SDS011;13160;51.834;4.706;2022-09-09T16:02:02;7.25;;;2.72;;
25213;SDS011;13160;51.834;4.706;2022-09-09T16:04:36;7.90;;;2.55;;
25213;SDS011;13160;51.834;4.706;2022-09-09T16:07:05;6.82;;;2.75;;
25213;SDS011;13160;51.834;4.706;2022-09-09T16:09:46;7.57;;;2.83;;
25213;SDS011;13160;51.834;4.706;2022-09-09T16:12:34;7.38;;;2.80;;
25213;SDS011;13160;51.834;4.706;2022-09-09T16:15:18;6.75;;;2.60;;
25213;SDS011;13160;51.834;4.706;2022-09-09T16:17:50;7.15;;;2.80;;
25213;SDS011;13160;51.834;4.706;2022-09-09T16:20:21;7.05;;;2.58;;
25213;SDS011;13160;51.834;4.706;2022-09-09T16:22:50;8.43;;;2.53;;
25213;SDS011;13160;51.834;4.706;2022-09-09T16:25:23;7.28;;;2.38;;
25213;SDS011;13160;51.834;4.706;2022-09-09T16:27:52;7.18;;;2.05;;
25213;SDS011;13160;51.834;4.706;2022-09-09T16:30:20;11.30;;;3.17;;
25213;SDS011;13160;51.834;4.706;2022-09-09T16:32:49;6.80;;;2.38;;
25213;SDS011;13160;51.834;4.706;2022-09-09T16:35:18;6.47;;;2.28;;
25213;SDS011;13160;51.834;4.706;2022-09-09T16:37:48;7.63;;;2.58;;
25213;SDS011;13160;51.834;4.706;2022-09-09T16:40:16;7.80;;;2.28;;
25213;SDS011;13160;51.834;4.706;2022-09-09T16:42:45;8.60;;;3.25;;
25213;SDS011;13160;51.834;4.706;2022-09-09T16:45:13;7.10;;;2.30;;
25213;SDS011;13160;51.834;4.706;2022-09-09T16:47:41;8.23;;;2.42;;
25213;SDS011;13160;51.834;4.706;2022-09-09T16:50:11;6.82;;;2.53;;
25213;SDS011;13160;51.834;4.706;2022-09-09T16:52:39;8.05;;;2.60;;
25213;SDS011;13160;51.834;4.706;2022-09-09T16:55:08;8.18;;;2.38;;
25213;SDS011;13160;51.834;4.706;2022-09-09T16:57:36;7.95;;;2.75;;
25213;SDS011;13160;51.834;4.706;2022-09-09T17:00:05;8.95;;;3.05;;
25213;SDS011;13160;51.834;4.706;2022-09-09T17:02:35;7.88;;;2.63;;
25213;SDS011;13160;51.834;4.706;2022-09-09T17:05:03;7.53;;;2.30;;
25213;SDS011;13160;51.834;4.706;2022-09-09T17:07:33;10.35;;;2.65;;
25213;SDS011;13160;51.834;4.706;2022-09-09T17:10:02;6.15;;;2.47;;
25213;SDS011;13160;51.834;4.706;2022-09-09T17:12:39;7.90;;;2.80;;
25213;SDS011;13160;51.834;4.706;2022-09-09T17:15:12;7.75;;;2.50;;
25213;SDS011;13160;51.834;4.706;2022-09-09T17:17:50;9.18;;;2.75;;
25213;SDS011;13160;51.834;4.706;2022-09-09T17:20:21;6.70;;;2.50;;
25213;SDS011;13160;51.834;4.706;2022-09-09T17:22:51;9.25;;;2.75;;
25213;SDS011;13160;51.834;4.706;2022-09-09T17:25:19;7.15;;;2.67;;
25213;SDS011;13160;51.834;4.706;2022-09-09T17:27:49;9.32;;;3.30;;
25213;SDS011;13160;51.834;4.706;2022-09-09T17:30:18;9.18;;;3.72;;
25213;SDS011;13160;51.834;4.706;2022-09-09T17:33:04;7.93;;;3.13;;
25213;SDS011;13160;51.834;4.706;2022-09-09T17:35:35;5.60;;;2.90;;
25213;SDS011;13160;51.834;4.706;2022-09-09T17:38:14;6.95;;;3.00;;
25213;SDS011;13160;51.834;4.706;2022-09-09T17:40:59;8.95;;;3.70;;
25213;SDS011;13160;51.834;4.706;2022-09-09T17:43:35;9.30;;;3.83;;
25213;SDS011;13160;51.834;4.706;2022-09-09T17:46:11;7.72;;;3.15;;
25213;SDS011;13160;51.834;4.706;2022-09-09T17:48:52;11.65;;;3.58;;
25213;SDS011;13160;51.834;4.706;2022-09-09T17:51:54;9.10;;;3.60;;
25213;SDS011;13160;51.834;4.706;2022-09-09T17:58:03;8.05;;;3.28;;
25213;SDS011;13160;51.834;4.706;2022-09-09T18:00:38;7.60;;;3.20;;
25213;SDS011;13160;51.834;4.706;2022-09-09T18:03:11;7.50;;;3.28;;
25213;SDS011;13160;51.834;4.706;2022-09-09T18:05:42;5.25;;;2.80;;
25213;SDS011;13160;51.834;4.706;2022-09-09T18:11:14;8.05;;;3.78;;
25213;SDS011;13160;51.834;4.706;2022-09-09T18:13:48;7.85;;;3.83;;
25213;SDS011;13160;51.834;4.706;2022-09-09T18:16:18;6.28;;;3.70;;
25213;SDS011;13160;51.834;4.706;2022-09-09T18:19:01;8.40;;;3.95;;
25213;SDS011;13160;51.834;4.706;2022-09-09T18:21:32;8.45;;;3.78;;
25213;SDS011;13160;51.834;4.706;2022-09-09T18:24:04;8.18;;;4.07;;
25213;SDS011;13160;51.834;4.706;2022-09-09T18:26:48;9.25;;;3.90;;
25213;SDS011;13160;51.834;4.706;2022-09-09T18:30:55;9.00;;;4.22;;
